Time;durP1;ratioP1;P1;durP2;ratioP2;P2;SDS_P1;SDS_P2;PMS_P1;PMS_P2;Temp;Humidity;BMP_temperature;BMP_pressure;BME280_temperature;BME280_humidity;BME280_pressure;Samples;Min_cycle;Max_cycle;Signal;HPM_P1;HPM_P2
2023/05/04 00:00:39;;;;;;;;;;;;;;;9.59;61.69;99675.19;5046724;28;20380;-79
2023/05/04 00:03:04;;;;;;;;;;;;;;;9.65;61.31;99673.50;5044416;28;19931;-79
2023/05/04 00:05:29;;;;;;;;;;;;;;;9.58;60.98;99670.91;5047819;28;19927;-79
2023/05/04 00:07:55;;;;;;;;;;;;;;;9.47;62.20;99674.31;5046109;28;20451;-79
2023/05/04 00:10:20;;;;;;;;;;;;;;;9.44;62.34;99671.25;5050441;28;19928;-79
2023/05/04 00:12:45;;;;;;;;;;;;;;;9.41;61.54;99677.84;5069727;28;19921;-79
2023/05/04 00:15:10;;;;;;;;;;;;;;;9.37;61.82;99667.84;5049898;28;20015;-80
2023/05/04 00:17:36;;;;;;;;;;;;;;;9.40;61.71;99664.72;5032929;28;19932;-79
2023/05/04 00:20:01;;;;;;;;;;;;;;;9.26;62.72;99660.59;5045622;28;20090;-79
2023/05/04 00:22:27;;;;;;;;;;;;;;;9.35;62.78;99659.28;5034317;28;19928;-79
2023/05/04 00:24:52;;;;;;;;;;;;;;;9.31;61.64;99652.72;5068489;28;20011;-79
2023/05/04 00:27:17;;;;;;;;;;;;;;;9.36;61.82;99658.22;5066123;28;19960;-79
2023/05/04 00:29:42;;;;;;;;;;;;;;;9.30;62.58;99656.44;5047696;28;20402;-79
2023/05/04 00:32:08;;;;;;;;;;;;;;;9.36;61.10;99650.22;5064293;28;20712;-79
2023/05/04 00:34:33;;;;;;;;;;;;;;;9.36;61.94;99647.56;5067531;28;19962;-79
2023/05/04 00:36:59;;;;;;;;;;;;;;;9.38;61.39;99648.16;5068558;28;19935;-79
2023/05/04 00:39:25;;;;;;;;;;;;;;;9.47;61.54;99644.16;5049599;28;19929;-79
2023/05/04 00:41:50;;;;;;;;;;;;;;;9.29;62.33;99646.81;5065456;28;19927;-79
2023/05/04 00:44:15;;;;;;;;;;;;;;;9.31;62.56;99640.22;5050654;28;20023;-79
2023/05/04 00:46:40;;;;;;;;;;;;;;;9.26;61.85;99647.28;5049256;28;19921;-79
2023/05/04 00:49:06;;;;;;;;;;;;;;;9.21;62.10;99645.25;5052532;28;20369;-79
2023/05/04 00:51:32;;;;;;;;;;;;;;;9.20;61.64;99642.78;5069294;28;19924;-79
2023/05/04 00:53:57;;;;;;;;;;;;;;;9.11;62.03;99649.47;5067557;28;19924;-79
2023/05/04 00:56:23;;;;;;;;;;;;;;;9.14;62.30;99649.00;5053787;28;19967;-79
2023/05/04 00:58:53;;;;;;;;;;;;;;;9.18;62.40;99640.38;5069313;28;19962;-79
2023/05/04 01:01:18;;;;;;;;;;;;;;;9.23;62.42;99642.38;5049719;28;20374;-79
2023/05/04 01:03:43;;;;;;;;;;;;;;;9.14;61.67;99636.50;5049979;28;19916;-79
2023/05/04 01:06:18;;;;;;;;;;;;;;;9.10;62.44;99630.00;5068963;28;19920;-79
2023/05/04 01:08:57;;;;;;;;;;;;;;;9.13;62.00;99629.53;5049144;28;19917;-79
2023/05/04 01:11:35;;;;;;;;;;;;;;;9.12;61.89;99619.94;5065810;28;20383;-79
2023/05/04 01:14:00;;;;;;;;;;;;;;;9.17;62.22;99621.94;5053411;28;19917;-79
2023/05/04 01:16:26;;;;;;;;;;;;;;;9.22;61.80;99616.78;5045763;28;19932;-79
2023/05/04 01:18:51;;;;;;;;;;;;;;;9.17;62.12;99621.94;5065788;28;20277;-79
2023/05/04 01:21:16;;;;;;;;;;;;;;;9.10;62.00;99615.88;5062992;28;20368;-79
2023/05/04 01:23:41;;;;;;;;;;;;;;;9.17;61.40;99616.63;5067854;28;20334;-79
2023/05/04 01:26:19;;;;;;;;;;;;;;;9.16;61.66;99620.31;5049157;28;19928;-79
2023/05/04 01:28:49;;;;;;;;;;;;;;;9.15;61.57;99618.69;5069625;28;20026;-79
2023/05/04 01:31:17;;;;;;;;;;;;;;;9.11;62.29;99614.84;5067224;28;19950;-79
2023/05/04 01:33:43;;;;;;;;;;;;;;;9.01;61.61;99612.69;5052803;28;19921;-79
2023/05/04 01:36:09;;;;;;;;;;;;;;;8.95;62.22;99625.00;5070762;28;20012;-79
2023/05/04 01:38:34;;;;;;;;;;;;;;;8.89;62.15;99617.91;5069205;28;19996;-79
2023/05/04 01:41:00;;;;;;;;;;;;;;;8.89;61.80;99631.19;5052211;28;19920;-79
2023/05/04 01:43:25;;;;;;;;;;;;;;;8.89;62.15;99615.22;5051530;28;19971;-79
2023/05/04 01:45:50;;;;;;;;;;;;;;;8.39;63.48;99616.25;5052056;28;19951;-79
2023/05/04 01:48:16;;;;;;;;;;;;;;;8.71;61.98;99617.03;5050923;28;19921;-79
2023/05/04 01:50:41;;;;;;;;;;;;;;;8.74;62.32;99622.75;5069074;28;19960;-79
2023/05/04 01:53:06;;;;;;;;;;;;;;;8.74;62.43;99616.59;5050078;28;19967;-79
2023/05/04 01:55:31;;;;;;;;;;;;;;;8.80;61.79;99615.75;5070269;28;19978;-79
2023/05/04 01:57:57;;;;;;;;;;;;;;;8.71;62.33;99611.72;5051315;28;19928;-79
2023/05/04 02:00:22;;;;;;;;;;;;;;;8.74;62.18;99611.28;5050163;28;19924;-79
2023/05/04 02:02:47;;;;;;;;;;;;;;;8.67;61.88;99613.97;5050595;28;20465;-79
2023/05/04 02:05:12;;;;;;;;;;;;;;;8.62;62.45;99619.16;5050426;28;19928;-79
2023/05/04 02:07:38;;;;;;;;;;;;;;;8.59;62.50;99624.91;5068851;28;20015;-79
2023/05/04 02:10:03;;;;;;;;;;;;;;;8.60;62.69;99615.09;5050785;28;20586;-78
2023/05/04 02:12:28;;;;;;;;;;;;;;;8.55;61.96;99615.72;5051486;28;19974;-79
2023/05/04 02:14:54;;;;;;;;;;;;;;;8.25;62.59;99612.03;5050720;28;19969;-80
2023/05/04 02:17:19;;;;;;;;;;;;;;;8.47;62.17;99615.19;5068553;28;19925;-79
2023/05/04 02:19:44;;;;;;;;;;;;;;;8.40;62.36;99615.22;5053209;28;20327;-79
2023/05/04 02:22:09;;;;;;;;;;;;;;;8.33;63.02;99609.13;5049140;28;20607;-79
2023/05/04 02:24:35;;;;;;;;;;;;;;;8.32;62.00;99612.84;5070750;28;20007;-79
2023/05/04 02:27:00;;;;;;;;;;;;;;;8.29;62.21;99613.25;5064780;28;19940;-79
2023/05/04 02:29:26;;;;;;;;;;;;;;;8.17;63.54;99609.63;5065081;28;19916;-79
2023/05/04 02:31:51;;;;;;;;;;;;;;;8.12;62.64;99607.63;5046798;28;19921;-79
2023/05/04 02:34:16;;;;;;;;;;;;;;;8.18;62.58;99605.94;5068376;28;19924;-79
2023/05/04 02:36:41;;;;;;;;;;;;;;;8.28;62.76;99609.78;5066253;28;20027;-79
2023/05/04 02:39:07;;;;;;;;;;;;;;;8.25;62.50;99617.34;5042778;28;19931;-79
2023/05/04 02:41:32;;;;;;;;;;;;;;;8.10;62.93;99616.84;5046275;28;19928;-79
2023/05/04 02:43:57;;;;;;;;;;;;;;;8.27;62.23;99617.97;5049963;28;19920;-79
2023/05/04 02:46:24;;;;;;;;;;;;;;;8.25;61.83;99612.03;5051055;28;20327;-79
2023/05/04 02:48:49;;;;;;;;;;;;;;;8.30;62.03;99609.56;5047613;28;19984;-79
2023/05/04 02:51:14;;;;;;;;;;;;;;;8.24;63.04;99610.38;5048941;28;20008;-79
2023/05/04 02:53:40;;;;;;;;;;;;;;;8.12;62.00;99604.97;5047480;28;19925;-79
2023/05/04 02:56:05;;;;;;;;;;;;;;;8.05;63.07;99606.00;5048032;28;19924;-79
2023/05/04 02:58:30;;;;;;;;;;;;;;;8.14;62.76;99607.41;5068437;28;20265;-79
2023/05/04 03:00:55;;;;;;;;;;;;;;;7.94;62.80;99602.19;5065961;28;19928;-79
2023/05/04 03:03:21;;;;;;;;;;;;;;;7.96;63.24;99607.28;5045617;28;19995;-79
2023/05/04 03:05:46;;;;;;;;;;;;;;;8.03;63.06;99611.56;5048386;28;19962;-79
2023/05/04 03:08:11;;;;;;;;;;;;;;;7.91;63.21;99601.78;5068936;28;19923;-78
2023/05/04 03:10:36;;;;;;;;;;;;;;;7.97;62.29;99603.63;5049442;28;19921;-79
2023/05/04 03:13:04;;;;;;;;;;;;;;;8.01;63.04;99612.78;5048531;28;19973;-79
2023/05/04 03:15:30;;;;;;;;;;;;;;;7.89;62.93;99601.19;5032399;28;19920;-78
2023/05/04 03:17:56;;;;;;;;;;;;;;;7.98;62.86;99600.75;5066130;28;20020;-79
2023/05/04 03:20:21;;;;;;;;;;;;;;;7.96;62.09;99610.78;5049387;28;20281;-79
2023/05/04 03:22:46;;;;;;;;;;;;;;;7.93;62.74;99608.53;5050854;28;19928;-79
2023/05/04 03:25:11;;;;;;;;;;;;;;;7.96;62.74;99612.59;5050038;28;19932;-78
2023/05/04 03:27:37;;;;;;;;;;;;;;;7.81;62.06;99610.25;5069655;28;19927;-79
2023/05/04 03:30:02;;;;;;;;;;;;;;;7.92;62.32;99606.91;5048622;28;20380;-79
2023/05/04 03:32:27;;;;;;;;;;;;;;;7.89;62.68;99604.66;5050287;28;19956;-79
2023/05/04 03:34:53;;;;;;;;;;;;;;;7.78;62.13;99605.34;5070049;28;19929;-79
2023/05/04 03:37:18;;;;;;;;;;;;;;;7.72;62.37;99595.56;5053186;28;19982;-79
2023/05/04 03:39:43;;;;;;;;;;;;;;;7.67;62.62;99598.03;5068812;28;19924;-79
2023/05/04 03:42:08;;;;;;;;;;;;;;;7.78;62.54;99602.69;5068053;28;19916;-79
2023/05/04 03:44:34;;;;;;;;;;;;;;;7.65;62.68;99600.06;5066187;28;20023;-79
2023/05/04 03:46:59;;;;;;;;;;;;;;;7.81;62.51;99596.94;5049121;28;19917;-79
2023/05/04 03:49:24;;;;;;;;;;;;;;;7.76;62.48;99596.75;5048064;28;19928;-79
2023/05/04 03:51:49;;;;;;;;;;;;;;;7.80;62.20;99597.97;5044441;28;19935;-79
2023/05/04 03:54:15;;;;;;;;;;;;;;;7.69;62.87;99603.16;5067847;28;19930;-79
2023/05/04 03:56:40;;;;;;;;;;;;;;;7.65;63.07;99594.75;5064202;28;20007;-79
2023/05/04 03:59:05;;;;;;;;;;;;;;;7.80;63.13;99594.50;5066325;28;19924;-79
2023/05/04 04:01:30;;;;;;;;;;;;;;;7.73;62.36;99593.72;5049595;28;19956;-79
2023/05/04 04:03:56;;;;;;;;;;;;;;;7.73;62.82;99591.88;5047262;28;19917;-79
2023/05/04 04:06:21;;;;;;;;;;;;;;;7.67;62.38;99591.88;5066577;28;20006;-79
2023/05/04 04:08:46;;;;;;;;;;;;;;;7.60;63.44;99586.59;5066511;28;19928;-79
2023/05/04 04:11:12;;;;;;;;;;;;;;;7.73;62.53;99593.72;5048856;28;19921;-79
2023/05/04 04:13:37;;;;;;;;;;;;;;;7.72;62.72;99592.06;5047602;28;19927;-79
2023/05/04 04:16:02;;;;;;;;;;;;;;;7.71;62.96;99577.97;5063553;28;19933;-79
2023/05/04 04:18:27;;;;;;;;;;;;;;;7.74;62.75;99587.38;5046591;28;19920;-79
2023/05/04 04:20:53;;;;;;;;;;;;;;;7.77;62.67;99593.09;5045540;28;19924;-79
2023/05/04 04:23:18;;;;;;;;;;;;;;;7.79;63.16;99585.72;5028281;28;19929;-79
2023/05/04 04:25:47;;;;;;;;;;;;;;;7.74;63.73;99582.06;5029601;28;19924;-79
2023/05/04 04:28:12;;;;;;;;;;;;;;;7.81;62.86;99588.16;5048763;28;19916;-79
2023/05/04 04:30:38;;;;;;;;;;;;;;;7.70;63.25;99588.81;5065768;28;19978;-79
2023/05/04 04:33:03;;;;;;;;;;;;;;;7.50;64.63;99586.25;5061340;28;19920;-78
2023/05/04 04:35:29;;;;;;;;;;;;;;;7.65;63.77;99584.13;5044806;28;20288;-79
2023/05/04 04:37:54;;;;;;;;;;;;;;;7.73;64.33;99591.88;5045014;28;20514;-79
2023/05/04 04:40:21;;;;;;;;;;;;;;;7.85;63.25;99586.69;5058433;28;19927;-79
2023/05/04 04:42:46;;;;;;;;;;;;;;;7.63;64.53;99590.69;5046505;28;19931;-78
2023/05/04 04:45:11;;;;;;;;;;;;;;;7.62;65.16;99586.41;5046044;28;19921;-78
2023/05/04 04:47:38;;;;;;;;;;;;;;;7.32;66.51;99588.75;5048017;28;19958;-78
2023/05/04 04:50:04;;;;;;;;;;;;;;;6.64;70.25;99584.81;5043644;28;19935;-80
2023/05/04 04:52:30;;;;;;;;;;;;;;;6.41;71.33;99581.75;5044793;28;19920;-79
2023/05/04 04:54:55;;;;;;;;;;;;;;;6.15;73.23;99582.56;5046694;28;20292;-81
2023/05/04 04:57:21;;;;;;;;;;;;;;;6.05;73.50;99579.47;5045427;28;19933;-81
2023/05/04 04:59:46;;;;;;;;;;;;;;;6.72;70.18;99582.78;5048398;28;19959;-81
2023/05/04 05:02:11;;;;;;;;;;;;;;;6.22;73.96;99582.56;5051107;28;20399;-81
2023/05/04 05:04:38;;;;;;;;;;;;;;;6.09;75.48;99579.88;5049596;28;19975;-81
2023/05/04 05:07:03;;;;;;;;;;;;;;;5.98;76.25;99576.00;5067579;28;19923;-81
2023/05/04 05:09:28;;;;;;;;;;;;;;;5.96;77.67;99580.69;5065970;28;20388;-81
2023/05/04 05:11:53;;;;;;;;;;;;;;;5.75;77.46;99576.31;5053551;28;19931;-81
2023/05/04 05:14:19;;;;;;;;;;;;;;;5.50;78.62;99571.75;5047972;28;19931;-79
2023/05/04 05:16:44;;;;;;;;;;;;;;;5.75;77.73;99573.66;5052474;28;20450;-81
2023/05/04 05:19:09;;;;;;;;;;;;;;;5.79;77.35;99572.25;5034122;28;19928;-80
2023/05/04 05:21:34;;;;;;;;;;;;;;;5.89;77.60;99561.31;5071256;28;20015;-81
2023/05/04 05:24:02;;;;;;;;;;;;;;;6.01;77.55;99565.81;5051644;28;19920;-81
2023/05/04 05:26:28;;;;;;;;;;;;;;;6.07;77.33;99566.84;5075568;28;19974;-79
2023/05/04 05:28:53;;;;;;;;;;;;;;;6.25;76.73;99571.53;5068847;28;19920;-79
2023/05/04 05:31:18;;;;;;;;;;;;;;;6.91;73.02;99564.34;5052077;28;19927;-79
2023/05/04 05:33:44;;;;;;;;;;;;;;;7.14;72.75;99565.53;5051370;28;20011;-79
2023/05/04 05:36:09;;;;;;;;;;;;;;;7.36;70.36;99553.59;5068969;28;19975;-79
2023/05/04 05:38:34;;;;;;;;;;;;;;;7.31;71.78;99568.56;5053082;28;20011;-78
2023/05/04 05:41:00;;;;;;;;;;;;;;;6.84;74.69;99566.22;5053765;28;20289;-79
2023/05/04 05:43:25;;;;;;;;;;;;;;;7.28;72.84;99559.16;5053541;28;19924;-80
2023/05/04 05:45:51;;;;;;;;;;;;;;;6.85;74.86;99563.38;5066409;28;19927;-81
2023/05/04 05:48:16;;;;;;;;;;;;;;;7.32;72.45;99563.03;5049581;28;20015;-80
2023/05/04 05:50:44;;;;;;;;;;;;;;;7.96;68.52;99556.78;5069010;28;20019;-81
2023/05/04 05:53:09;;;;;;;;;;;;;;;8.42;67.18;99556.50;5058829;28;20349;-81
2023/05/04 05:55:34;;;;;;;;;;;;;;;8.08;69.03;99563.84;5063415;28;19964;-80
2023/05/04 05:58:00;;;;;;;;;;;;;;;8.39;67.02;99544.44;5068407;28;20299;-80
2023/05/04 06:00:25;;;;;;;;;;;;;;;8.06;69.18;99554.50;5068932;28;20375;-80
2023/05/04 06:02:51;;;;;;;;;;;;;;;8.11;69.97;99554.63;5068322;28;19939;-81
2023/05/04 06:05:16;;;;;;;;;;;;;;;8.14;69.36;99554.22;5070829;28;19974;-80
2023/05/04 06:07:41;;;;;;;;;;;;;;;8.29;69.15;99554.75;5050750;28;20036;-80
2023/05/04 06:10:07;;;;;;;;;;;;;;;8.08;69.68;99552.44;5050559;28;20372;-80
2023/05/04 06:12:32;;;;;;;;;;;;;;;8.09;70.50;99551.38;5069519;28;20272;-80
2023/05/04 06:14:58;;;;;;;;;;;;;;;8.17;69.88;99556.44;5054428;28;19921;-81
2023/05/04 06:17:23;;;;;;;;;;;;;;;7.81;71.38;99546.47;5051973;28;19928;-81
2023/05/04 06:19:50;;;;;;;;;;;;;;;8.41;70.11;99552.22;5052299;28;19920;-81
2023/05/04 06:22:15;;;;;;;;;;;;;;;8.71;67.31;99553.19;5053299;28;19931;-81
2023/05/04 06:24:40;;;;;;;;;;;;;;;8.44;68.89;99546.44;5058462;28;20295;-81
2023/05/04 06:27:06;;;;;;;;;;;;;;;9.14;65.61;99547.81;5057333;28;20027;-81
2023/05/04 06:29:31;;;;;;;;;;;;;;;9.47;65.13;99549.06;5072468;28;20438;-79
2023/05/04 06:31:57;;;;;;;;;;;;;;;8.75;68.21;99549.84;5055718;28;19924;-81
2023/05/04 06:34:23;;;;;;;;;;;;;;;9.04;66.16;99548.34;5055144;28;20395;-81
2023/05/04 06:36:48;;;;;;;;;;;;;;;9.53;64.54;99553.50;5057586;28;19921;-81
2023/05/04 06:39:13;;;;;;;;;;;;;;;9.41;66.08;99549.97;5060245;28;20035;-80
2023/05/04 06:41:41;;;;;;;;;;;;;;;9.04;66.33;99554.47;5048631;28;20015;-80
2023/05/04 06:44:07;;;;;;;;;;;;;;;8.99;68.01;99556.16;5071204;28;19923;-80
2023/05/04 06:46:38;;;;;;;;;;;;;;;9.18;66.40;99546.31;5055580;28;19920;-80
2023/05/04 06:49:04;;;;;;;;;;;;;;;9.26;66.24;99538.84;5056685;28;19924;-80
2023/05/04 06:51:30;;;;;;;;;;;;;;;9.41;66.26;99539.31;5070453;28;19943;-80
2023/05/04 06:53:55;;;;;;;;;;;;;;;9.25;66.54;99536.41;5069006;28;20383;-80
2023/05/04 06:56:21;;;;;;;;;;;;;;;9.27;65.97;99543.16;5054467;28;19921;-81
2023/05/04 06:58:46;;;;;;;;;;;;;;;9.85;65.16;99530.09;5068354;28;19920;-81
2023/05/04 07:01:12;;;;;;;;;;;;;;;9.66;65.79;99536.50;5052992;28;20284;-81
2023/05/04 07:03:37;;;;;;;;;;;;;;;9.88;65.03;99534.97;5069942;28;19924;-80
2023/05/04 07:06:03;;;;;;;;;;;;;;;10.22;63.56;99544.16;5053441;28;20299;-81
2023/05/04 07:08:28;;;;;;;;;;;;;;;10.17;65.29;99539.50;5054441;28;19921;-81
2023/05/04 07:10:53;;;;;;;;;;;;;;;10.19;65.86;99541.94;5055317;28;20375;-81
2023/05/04 07:13:19;;;;;;;;;;;;;;;10.48;63.44;99541.84;5052830;28;19925;-81
2023/05/04 07:15:44;;;;;;;;;;;;;;;10.24;65.29;99534.84;5060321;28;19921;-80
2023/05/04 07:18:09;;;;;;;;;;;;;;;10.32;65.58;99539.88;5054241;28;19925;-81
2023/05/04 07:20:34;;;;;;;;;;;;;;;10.48;64.46;99541.84;5055049;28;19924;-80
2023/05/04 07:23:00;;;;;;;;;;;;;;;10.72;62.82;99544.56;5070267;28;20384;-81
2023/05/04 07:25:26;;;;;;;;;;;;;;;10.42;66.43;99537.44;5071564;28;19974;-81
2023/05/04 07:27:52;;;;;;;;;;;;;;;10.48;65.63;99533.84;5056486;28;19996;-80
2023/05/04 07:30:18;;;;;;;;;;;;;;;10.67;64.99;99539.09;5056353;28;19923;-81
2023/05/04 07:32:43;;;;;;;;;;;;;;;10.89;62.91;99540.97;5072517;28;20398;-81
2023/05/04 07:35:08;;;;;;;;;;;;;;;10.94;63.88;99540.25;5072250;28;19917;-80
2023/05/04 07:37:34;;;;;;;;;;;;;;;11.24;61.90;99533.72;5052263;28;19935;-81
2023/05/04 07:40:00;;;;;;;;;;;;;;;11.10;63.07;99539.53;5055506;28;19927;-81
2023/05/04 07:42:26;;;;;;;;;;;;;;;11.33;61.85;99534.94;5049133;28;19931;-80
2023/05/04 07:44:52;;;;;;;;;;;;;;;11.11;63.60;99533.97;5072249;28;19916;-81
2023/05/04 07:47:17;;;;;;;;;;;;;;;11.00;65.63;99528.63;5050907;28;19974;-81
2023/05/04 07:49:42;;;;;;;;;;;;;;;11.35;62.39;99525.88;5065859;28;19920;-80
2023/05/04 07:52:07;;;;;;;;;;;;;;;10.95;66.17;99533.84;5071974;28;19963;-81
2023/05/04 07:54:33;;;;;;;;;;;;;;;11.39;62.99;99522.50;5068563;28;19916;-81
2023/05/04 07:57:00;;;;;;;;;;;;;;;11.13;64.09;99523.03;5071969;28;20026;-81
2023/05/04 07:59:25;;;;;;;;;;;;;;;10.84;65.02;99521.31;5068998;28;19916;-81
2023/05/04 08:01:51;;;;;;;;;;;;;;;10.92;65.36;99526.34;5070481;28;20051;-81
2023/05/04 08:04:16;;;;;;;;;;;;;;;10.79;66.70;99516.69;5050944;28;20453;-80
2023/05/04 08:06:41;;;;;;;;;;;;;;;10.90;65.38;99520.41;5052837;28;20295;-81
2023/05/04 08:09:06;;;;;;;;;;;;;;;11.38;65.54;99520.88;5071671;28;19916;-80
2023/05/04 08:11:34;;;;;;;;;;;;;;;11.61;62.52;99511.97;5052225;28;20217;-80
2023/05/04 08:13:59;;;;;;;;;;;;;;;11.25;64.52;99526.47;5054410;28;20333;-81
2023/05/04 08:16:25;;;;;;;;;;;;;;;11.01;65.67;99527.56;5053763;28;20342;-81
2023/05/04 08:18:50;;;;;;;;;;;;;;;10.99;67.37;99516.31;5072366;28;19950;-81
2023/05/04 08:21:15;;;;;;;;;;;;;;;11.03;65.94;99520.16;5070793;28;19931;-81
2023/05/04 08:23:41;;;;;;;;;;;;;;;11.27;65.28;99511.84;5053172;28;19951;-81
2023/05/04 08:26:06;;;;;;;;;;;;;;;11.65;63.20;99510.44;5053197;28;19976;-81
2023/05/04 08:28:44;;;;;;;;;;;;;;;11.93;62.77;99508.59;5052297;28;19921;-81
2023/05/04 08:31:09;;;;;;;;;;;;;;;11.67;64.69;99516.38;5054344;28;20007;-81
2023/05/04 08:33:35;;;;;;;;;;;;;;;12.02;63.31;99507.16;5050426;28;20027;-80
2023/05/04 08:36:00;;;;;;;;;;;;;;;12.10;65.10;99507.81;5049810;28;19921;-81
2023/05/04 08:38:25;;;;;;;;;;;;;;;11.70;64.86;99502.56;5050265;28;19924;-81
2023/05/04 08:40:51;;;;;;;;;;;;;;;11.87;63.61;99496.19;5056723;28;19920;-81
2023/05/04 08:43:16;;;;;;;;;;;;;;;11.91;65.02;99493.84;5052281;28;20058;-80
2023/05/04 08:45:42;;;;;;;;;;;;;;;11.88;66.43;99489.78;5070760;28;19916;-81
2023/05/04 08:48:07;;;;;;;;;;;;;;;11.98;65.03;99499.84;5053456;28;19924;-80
2023/05/04 08:50:33;;;;;;;;;;;;;;;12.47;62.48;99490.22;5071461;28;19916;-81
2023/05/04 08:53:01;;;;;;;;;;;;;;;12.46;64.36;99483.22;5071134;28;20384;-81
2023/05/04 08:55:28;;;;;;;;;;;;;;;12.56;64.42;99489.53;5069677;28;19995;-81
2023/05/04 08:57:53;;;;;;;;;;;;;;;12.58;65.41;99487.44;5068718;28;20011;-80
2023/05/04 09:00:19;;;;;;;;;;;;;;;12.37;63.36;99482.84;5048511;28;20350;-81
2023/05/04 09:02:44;;;;;;;;;;;;;;;12.57;62.17;99483.16;5067255;28;19928;-81
2023/05/04 09:05:10;;;;;;;;;;;;;;;12.71;61.43;99483.63;5052055;28;19924;-81
2023/05/04 09:07:36;;;;;;;;;;;;;;;12.69;62.38;99480.34;5071136;28;19924;-81
2023/05/04 09:10:02;;;;;;;;;;;;;;;12.80;62.87;99477.56;5045153;28;20353;-81
2023/05/04 09:12:27;;;;;;;;;;;;;;;13.24;61.70;99480.31;5069826;28;20003;-80
2023/05/04 09:14:52;;;;;;;;;;;;;;;13.40;60.71;99476.75;5071303;28;19921;-81
2023/05/04 09:17:26;;;;;;;;;;;;;;;13.49;60.79;99473.38;5052429;28;19931;-81
2023/05/04 09:20:01;;;;;;;;;;;;;;;13.59;60.08;99474.53;5054426;28;19921;-81
2023/05/04 09:22:27;;;;;;;;;;;;;;;13.51;60.81;99471.25;5066855;28;19962;-81
2023/05/04 09:24:53;;;;;;;;;;;;;;;13.79;59.43;99464.81;5053646;28;19924;-81
2023/05/04 09:27:19;;;;;;;;;;;;;;;13.86;61.15;99457.38;5053434;28;19928;-81
2023/05/04 09:29:52;;;;;;;;;;;;;;;13.96;60.00;99465.50;5052972;28;19978;-81
2023/05/04 09:32:17;;;;;;;;;;;;;;;14.01;60.87;99462.06;5071902;28;19924;-81
2023/05/04 09:34:47;;;;;;;;;;;;;;;14.06;60.33;99454.06;5053030;28;19924;-81
2023/05/04 09:37:12;;;;;;;;;;;;;;;14.01;59.68;99456.69;5069759;28;19982;-81
2023/05/04 09:39:47;;;;;;;;;;;;;;;14.33;58.93;99446.00;5046815;28;19924;-81
2023/05/04 09:42:17;;;;;;;;;;;;;;;14.42;59.01;99447.09;5069562;28;20451;-81
2023/05/04 09:44:42;;;;;;;;;;;;;;;13.95;59.07;99455.03;5071455;28;20444;-81
2023/05/04 09:47:08;;;;;;;;;;;;;;;14.13;59.76;99443.94;5053365;28;19916;-81
2023/05/04 09:49:34;;;;;;;;;;;;;;;14.29;59.45;99440.31;5070792;28;20494;-81
2023/05/04 09:52:03;;;;;;;;;;;;;;;14.47;59.77;99447.97;5073681;28;19999;-81
2023/05/04 09:54:33;;;;;;;;;;;;;;;14.84;57.88;99437.16;5069942;28;19916;-81
2023/05/04 09:57:19;;;;;;;;;;;;;;;15.03;57.79;99446.38;5055569;28;19925;-81
2023/05/04 09:59:44;;;;;;;;;;;;;;;15.32;56.62;99430.63;5074235;28;19916;-81
2023/05/04 10:02:11;;;;;;;;;;;;;;;15.29;59.16;99429.25;5073923;28;19927;-81
2023/05/04 10:04:37;;;;;;;;;;;;;;;15.28;57.10;99424.16;5047715;28;19916;-81
2023/05/04 10:07:03;;;;;;;;;;;;;;;15.42;57.08;99430.66;5052028;28;19970;-81
2023/05/04 10:09:29;;;;;;;;;;;;;;;15.70;56.67;99422.13;5076286;28;19927;-81
2023/05/04 10:11:55;;;;;;;;;;;;;;;15.79;55.60;99420.53;5072906;28;19916;-81
2023/05/04 10:14:21;;;;;;;;;;;;;;;15.65;54.59;99412.16;5073875;28;19920;-81
2023/05/04 10:16:52;;;;;;;;;;;;;;;15.52;55.71;99406.50;5053901;28;19970;-81
2023/05/04 10:19:34;;;;;;;;;;;;;;;15.73;54.60;99403.56;5073300;28;19924;-81
2023/05/04 10:22:18;;;;;;;;;;;;;;;15.55;54.89;99408.66;5065977;28;20001;-81
2023/05/04 10:24:59;;;;;;;;;;;;;;;15.75;54.57;99398.72;5054841;28;20019;-81
2023/05/04 10:27:48;;;;;;;;;;;;;;;15.64;54.30;99396.25;5056535;28;20372;-81
2023/05/04 10:30:15;;;;;;;;;;;;;;;16.07;55.10;99395.75;5044587;28;19923;-81
2023/05/04 10:32:40;;;;;;;;;;;;;;;16.40;55.77;99392.47;5054089;28;19989;-81
2023/05/04 10:35:06;;;;;;;;;;;;;;;16.26;53.49;99394.13;5056357;28;19925;-81
2023/05/04 10:37:31;;;;;;;;;;;;;;;16.01;53.14;99375.28;5072622;28;20010;-81
2023/05/04 10:39:57;;;;;;;;;;;;;;;16.52;54.76;99391.38;5070724;28;20320;-81
2023/05/04 10:42:22;;;;;;;;;;;;;;;16.56;53.45;99387.06;5059031;28;19959;-81
2023/05/04 10:44:54;;;;;;;;;;;;;;;16.59;54.21;99375.75;5073161;28;19923;-81
2023/05/04 10:47:32;;;;;;;;;;;;;;;17.04;53.34;99376.38;5073486;28;19925;-81
2023/05/04 10:50:01;;;;;;;;;;;;;;;17.12;52.25;99369.59;5055292;28;20023;-81
2023/05/04 10:52:26;;;;;;;;;;;;;;;17.15;52.66;99359.03;5071869;28;19920;-81
2023/05/04 10:54:58;;;;;;;;;;;;;;;17.29;52.29;99353.03;5056956;28;20304;-81
2023/05/04 10:57:26;;;;;;;;;;;;;;;17.34;52.36;99359.22;5055681;28;19920;-82
2023/05/04 10:59:56;;;;;;;;;;;;;;;17.53;52.10;99354.78;5053675;28;19916;-81
2023/05/04 11:02:25;;;;;;;;;;;;;;;17.70;52.63;99355.19;5071032;28;19916;-81
2023/05/04 11:05:00;;;;;;;;;;;;;;;17.84;51.96;99336.47;5055316;28;20018;-81
2023/05/04 11:07:37;;;;;;;;;;;;;;;17.82;51.01;99344.81;5055152;28;19925;-81
2023/05/04 11:10:06;;;;;;;;;;;;;;;17.99;51.73;99333.63;5032762;28;20449;-81
2023/05/04 11:12:32;;;;;;;;;;;;;;;18.11;51.66;99333.25;5060212;28;20407;-81
2023/05/04 11:15:05;;;;;;;;;;;;;;;18.20;51.82;99332.31;5055551;28;19960;-81
2023/05/04 11:17:30;;;;;;;;;;;;;;;18.27;51.39;99329.28;5072489;28;19928;-81
2023/05/04 11:19:55;;;;;;;;;;;;;;;18.43;50.44;99318.03;5071177;28;20315;-81
2023/05/04 11:22:21;;;;;;;;;;;;;;;18.35;51.32;99334.03;5053527;28;19955;-81
2023/05/04 11:24:47;;;;;;;;;;;;;;;18.58;49.18;99320.59;5073168;28;20364;-82
2023/05/04 11:27:23;;;;;;;;;;;;;;;18.52;49.30;99318.22;5075765;28;20345;-81
2023/05/04 11:29:59;;;;;;;;;;;;;;;18.44;49.23;99316.09;5053166;28;19923;-81
2023/05/04 11:32:37;;;;;;;;;;;;;;;18.78;51.09;99310.59;5072753;28;19954;-82
2023/05/04 11:35:03;;;;;;;;;;;;;;;18.84;49.39;99315.66;5058560;28;19944;-81
2023/05/04 11:37:29;;;;;;;;;;;;;;;18.79;50.46;99312.19;5072533;28;19970;-81
2023/05/04 11:39:55;;;;;;;;;;;;;;;18.92;49.48;99311.47;5083203;28;20283;-82
2023/05/04 11:42:20;;;;;;;;;;;;;;;19.13;49.91;99294.66;5064534;28;20337;-82
2023/05/04 11:44:46;;;;;;;;;;;;;;;19.04;50.00;99287.50;5051085;28;20007;-81
2023/05/04 11:47:12;;;;;;;;;;;;;;;19.06;47.09;99290.72;5061698;28;19920;-82
2023/05/04 11:49:38;;;;;;;;;;;;;;;18.72;47.00;99287.44;5071532;28;20060;-81
2023/05/04 11:52:04;;;;;;;;;;;;;;;18.90;47.56;99287.44;5063894;28;20372;-81
2023/05/04 11:54:29;;;;;;;;;;;;;;;19.17;48.54;99284.06;5051933;28;20040;-82
2023/05/04 11:56:55;;;;;;;;;;;;;;;19.28;45.84;99290.94;5045490;28;20193;-81
2023/05/04 11:59:20;;;;;;;;;;;;;;;19.48;48.58;99270.91;5062223;28;19928;-82
2023/05/04 12:01:46;;;;;;;;;;;;;;;19.56;49.56;99270.22;5070345;28;19924;-82
2023/05/04 12:04:11;;;;;;;;;;;;;;;19.70;48.10;99260.22;5068111;28;20384;-82
2023/05/04 12:06:37;;;;;;;;;;;;;;;19.84;48.53;99267.28;5066620;28;20005;-82
2023/05/04 12:09:03;;;;;;;;;;;;;;;19.93;48.33;99259.25;5067237;28;19947;-82
2023/05/04 12:11:29;;;;;;;;;;;;;;;19.86;47.93;99267.78;5050704;28;19931;-82
2023/05/04 12:14:05;;;;;;;;;;;;;;;19.78;47.70;99264.94;5057358;28;19920;-82
2023/05/04 12:16:30;;;;;;;;;;;;;;;19.57;46.84;99259.06;5069432;28;19924;-82
2023/05/04 12:19:04;;;;;;;;;;;;;;;19.37;44.18;99254.03;5065403;28;19932;-81
2023/05/04 12:21:30;;;;;;;;;;;;;;;19.77;45.15;99257.91;5069343;28;19917;-82
2023/05/04 12:23:59;;;;;;;;;;;;;;;19.95;45.58;99262.47;5073696;28;19927;-82
2023/05/04 12:26:24;;;;;;;;;;;;;;;19.85;45.55;99254.53;5071656;28;19967;-82
2023/05/04 12:28:50;;;;;;;;;;;;;;;20.25;47.69;99259.19;5057623;28;19920;-83
2023/05/04 12:31:15;;;;;;;;;;;;;;;20.42;43.99;99259.41;5053646;28;19924;-82
2023/05/04 12:33:40;;;;;;;;;;;;;;;20.27;43.55;99251.56;5069534;28;19916;-81
2023/05/04 12:36:06;;;;;;;;;;;;;;;20.16;43.24;99242.00;5050510;28;19976;-81
2023/05/04 12:38:31;;;;;;;;;;;;;;;19.89;44.56;99244.72;5065234;28;19920;-81
2023/05/04 12:41:02;;;;;;;;;;;;;;;19.90;47.65;99238.16;5072166;28;21411;-81
2023/05/04 12:43:27;;;;;;;;;;;;;;;20.16;47.37;99250.94;5068355;28;19923;-81
2023/05/04 12:45:52;;;;;;;;;;;;;;;20.36;46.28;99244.34;5068746;28;19943;-82
2023/05/04 12:48:19;;;;;;;;;;;;;;;20.38;43.14;99236.69;5071250;28;19920;-82